Time;durP1;ratioP1;P1;durP2;ratioP2;P2;SDS_P1;SDS_P2;PMS_P1;PMS_P2;Temp;Humidity;BMP_temperature;BMP_pressure;BME280_temperature;BME280_humidity;BME280_pressure;Samples;Min_cycle;Max_cycle;Signal;HPM_P1;HPM_P2
2021/03/13 00:00:37;;;;;;;84.30;39.13;;;0.70;99.90;;;;;;4157995;28;20263;-64
2021/03/13 00:02:40;;;;;;;89.10;38.90;;;0.70;99.90;;;;;;4159684;28;20283;-62
2021/03/13 00:04:41;;;;;;;93.13;40.67;;;0.60;99.90;;;;;;4158611;28;20270;-62
2021/03/13 00:06:42;;;;;;;98.57;41.80;;;0.60;99.90;;;;;;4159650;28;20820;-63
2021/03/13 00:08:44;;;;;;;89.90;40.20;;;0.60;99.90;;;;;;4158645;28;20286;-62
2021/03/13 00:10:46;;;;;;;96.00;41.93;;;0.60;99.90;;;;;;4159749;28;20678;-68
2021/03/13 00:12:47;;;;;;;95.47;42.87;;;0.60;99.90;;;;;;4159153;28;20317;-62
2021/03/13 00:14:49;;;;;;;92.40;40.60;;;0.60;99.90;;;;;;4158784;28;20376;-62
2021/03/13 00:16:50;;;;;;;93.40;42.60;;;0.70;99.90;;;;;;4159056;28;20350;-62
2021/03/13 00:18:51;;;;;;;85.87;38.50;;;0.60;99.90;;;;;;4169357;28;20899;-61
2021/03/13 00:20:52;;;;;;;93.50;40.27;;;0.60;99.90;;;;;;4175893;28;20266;-62
2021/03/13 00:22:54;;;;;;;91.07;40.90;;;0.60;99.90;;;;;;4174666;28;20266;-62
2021/03/13 00:24:56;;;;;;;100.93;42.10;;;0.60;99.90;;;;;;4175748;28;20293;-63
2021/03/13 00:26:57;;;;;;;100.77;41.93;;;0.50;99.90;;;;;;4163397;28;20297;-61
2021/03/13 00:28:58;;;;;;;92.00;40.83;;;0.50;99.90;;;;;;4159090;28;20328;-63
2021/03/13 00:30:59;;;;;;;98.27;41.57;;;0.50;99.90;;;;;;4158357;28;20317;-63
2021/03/13 00:33:04;;;;;;;95.23;42.13;;;0.60;99.90;;;;;;4159167;28;20278;-62
2021/03/13 00:35:06;;;;;;;107.43;45.40;;;0.60;99.90;;;;;;4157443;28;20324;-62
2021/03/13 00:37:07;;;;;;;100.63;44.53;;;0.60;99.90;;;;;;4158368;28;20344;-63
2021/03/13 00:39:08;;;;;;;98.90;44.10;;;0.60;99.90;;;;;;4158289;28;20274;-63
2021/03/13 00:41:09;;;;;;;99.57;45.53;;;0.60;99.90;;;;;;4158842;28;20271;-63
2021/03/13 00:43:13;;;;;;;99.10;42.53;;;0.60;99.90;;;;;;4158448;28;20290;-65
2021/03/13 00:45:16;;;;;;;93.23;41.67;;;0.60;99.90;;;;;;4158380;28;20302;-63
2021/03/13 00:47:17;;;;;;;98.57;41.27;;;0.70;99.90;;;;;;4158634;28;20294;-65
2021/03/13 00:49:18;;;;;;;85.90;40.47;;;0.70;99.90;;;;;;4157520;28;20275;-65
2021/03/13 00:51:19;;;;;;;99.10;42.53;;;0.70;99.90;;;;;;4158275;28;21052;-62
2021/03/13 00:53:21;;;;;;;99.70;41.67;;;0.70;99.90;;;;;;4157501;28;20742;-63
2021/03/13 00:55:22;;;;;;;102.37;43.87;;;0.70;99.90;;;;;;4159063;28;20679;-63
2021/03/13 00:57:23;;;;;;;99.97;43.23;;;0.70;99.90;;;;;;4158100;28;20709;-63
2021/03/13 00:59:25;;;;;;;94.73;40.87;;;0.80;99.90;;;;;;4159109;28;20309;-65
2021/03/13 01:01:26;;;;;;;96.40;42.50;;;0.70;99.90;;;;;;4158213;28;20308;-68
2021/03/13 01:03:27;;;;;;;94.23;40.10;;;0.70;99.90;;;;;;4158776;28;20271;-62
2021/03/13 01:05:30;;;;;;;99.97;44.70;;;0.70;99.90;;;;;;4157983;28;20271;-60
2021/03/13 01:07:32;;;;;;;95.73;41.23;;;0.70;99.90;;;;;;4158542;28;20340;-63
2021/03/13 01:09:34;;;;;;;102.60;43.30;;;0.70;99.90;;;;;;4158437;28;20332;-63
2021/03/13 01:11:35;;;;;;;102.93;44.27;;;0.70;99.90;;;;;;4158461;28;20259;-62
2021/03/13 01:13:36;;;;;;;94.43;42.63;;;0.70;99.90;;;;;;4157566;28;20289;-62
2021/03/13 01:15:37;;;;;;;95.23;40.80;;;0.80;99.90;;;;;;4158068;28;20266;-61
2021/03/13 01:17:38;;;;;;;90.83;42.27;;;0.80;99.90;;;;;;4158069;28;20321;-62
2021/03/13 01:19:40;;;;;;;99.80;41.43;;;0.80;99.90;;;;;;4156586;28;20274;-62
2021/03/13 01:21:41;;;;;;;91.40;39.63;;;0.80;99.90;;;;;;4158151;28;20262;-61
2021/03/13 01:23:42;;;;;;;98.40;43.43;;;0.80;99.90;;;;;;4157920;28;20329;-62
2021/03/13 01:25:43;;;;;;;82.93;37.20;;;0.70;99.90;;;;;;4158341;28;20267;-63
2021/03/13 01:27:44;;;;;;;76.50;36.00;;;0.70;99.90;;;;;;4157262;28;20376;-62
2021/03/13 01:29:45;;;;;;;69.53;32.53;;;0.60;99.90;;;;;;4159019;28;20270;-65
2021/03/13 01:31:46;;;;;;;78.23;36.60;;;0.60;99.90;;;;;;4157302;28;20287;-65
2021/03/13 01:33:48;;;;;;;66.73;34.10;;;0.60;99.90;;;;;;4158652;28;20285;-62
2021/03/13 01:35:49;;;;;;;74.80;35.63;;;0.60;99.90;;;;;;4156626;28;20340;-61
2021/03/13 01:37:50;;;;;;;72.50;34.43;;;0.60;99.90;;;;;;4158286;28;20291;-62
2021/03/13 01:39:51;;;;;;;88.93;37.10;;;0.50;99.90;;;;;;4157317;28;20274;-61
2021/03/13 01:41:52;;;;;;;81.03;36.60;;;0.50;99.90;;;;;;4158089;28;20263;-69
2021/03/13 01:43:53;;;;;;;90.17;39.77;;;0.50;99.90;;;;;;4156705;28;20742;-62
2021/03/13 01:45:54;;;;;;;84.67;37.17;;;0.40;99.90;;;;;;4157867;28;20337;-62
2021/03/13 01:47:55;;;;;;;79.53;36.67;;;0.40;99.90;;;;;;4157894;28;20302;-62
2021/03/13 01:49:57;;;;;;;92.50;40.63;;;0.40;99.90;;;;;;4157177;28;20306;-62
2021/03/13 01:51:59;;;;;;;89.70;39.60;;;0.40;99.90;;;;;;4158543;28;20263;-64
2021/03/13 01:54:00;;;;;;;84.37;39.47;;;0.40;99.90;;;;;;4156870;28;20341;-62
2021/03/13 01:56:02;;;;;;;90.10;37.07;;;0.40;99.90;;;;;;4158395;28;20263;-62
2021/03/13 01:58:03;;;;;;;84.17;37.73;;;0.40;99.90;;;;;;4155625;28;20372;-65
2021/03/13 02:00:13;;;;;;;86.83;38.53;;;0.40;99.90;;;;;;4158029;28;20271;-62
2021/03/13 02:02:16;;;;;;;84.53;38.13;;;0.30;99.90;;;;;;4157042;28;20727;-62
2021/03/13 02:04:17;;;;;;;91.10;39.50;;;0.40;99.90;;;;;;4158031;28;20091;-63
2021/03/13 02:06:18;;;;;;;85.33;38.37;;;0.30;99.90;;;;;;4156910;28;20258;-63
2021/03/13 02:08:44;;;;;;;75.57;34.97;;;0.30;99.90;;;;;;4156411;28;20325;-63
2021/03/13 02:11:01;;;;;;;88.57;38.30;;;0.30;99.90;;;;;;4156753;28;20275;-62
2021/03/13 02:13:06;;;;;;;92.17;40.73;;;0.30;99.90;;;;;;4157546;28;20356;-62
2021/03/13 02:15:22;;;;;;;87.57;39.67;;;0.30;99.90;;;;;;4156517;28;20326;-61
2021/03/13 02:17:56;;;;;;;94.10;40.00;;;0.30;99.90;;;;;;4157010;28;20340;-61
2021/03/13 02:20:12;;;;;;;85.03;38.67;;;0.30;99.90;;;;;;4156619;28;20327;-62
2021/03/13 02:22:18;;;;;;;91.10;40.17;;;0.40;99.90;;;;;;4157326;28;20973;-63
2021/03/13 02:24:28;;;;;;;84.80;39.70;;;0.40;99.90;;;;;;4156278;28;20320;-62
2021/03/13 02:26:44;;;;;;;85.22;39.00;;;0.40;99.90;;;;;;4157733;28;20329;-62
2021/03/13 02:29:40;;;;;;;84.17;37.83;;;0.50;99.90;;;;;;4155040;28;20092;-62
2021/03/13 02:31:55;;;;;;;76.93;35.23;;;0.50;99.90;;;;;;4089681;29;20868;-62
2021/03/13 02:34:00;;;;;;;84.77;38.13;;;0.50;99.90;;;;;;4134872;28;20262;-63
2021/03/13 02:36:05;;;;;;;77.57;35.13;;;0.50;99.90;;;;;;4140063;28;20272;-62
2021/03/13 02:38:12;;;;;;;75.53;35.87;;;0.50;99.90;;;;;;4141189;28;20279;-62
2021/03/13 02:40:18;;;;;;;78.63;35.33;;;0.40;99.90;;;;;;4140412;28;20256;-62
2021/03/13 02:42:22;;;;;;;82.50;36.70;;;0.40;99.90;;;;;;4140461;28;20743;-61
2021/03/13 02:44:24;;;;;;;84.50;36.83;;;0.40;99.90;;;;;;4140039;28;20251;-63
2021/03/13 02:46:27;;;;;;;76.83;35.93;;;0.50;99.90;;;;;;4139976;28;20686;-63
2021/03/13 02:48:30;;;;;;;75.77;34.07;;;0.40;99.90;;;;;;4140434;28;20841;-63
2021/03/13 02:50:32;;;;;;;83.60;36.53;;;0.40;99.90;;;;;;4137481;28;20333;-63
2021/03/13 02:52:36;;;;;;;77.90;34.83;;;0.40;99.90;;;;;;4140398;28;20271;-63
2021/03/13 02:54:39;;;;;;;80.07;35.37;;;0.30;99.90;;;;;;4147751;28;20717;-63
2021/03/13 02:56:43;;;;;;;80.03;35.90;;;0.30;99.90;;;;;;4157522;28;20324;-63
2021/03/13 02:58:48;;;;;;;77.73;33.40;;;0.30;99.90;;;;;;4156132;28;20620;-63
2021/03/13 03:00:50;;;;;;;83.17;34.07;;;0.30;99.90;;;;;;4157663;28;20738;-62
2021/03/13 03:02:55;;;;;;;79.43;35.93;;;0.20;99.90;;;;;;4156162;28;20259;-63
2021/03/13 03:04:58;;;;;;;60.97;28.03;;;0.20;99.90;;;;;;4157012;28;20283;-62
2021/03/13 03:07:00;;;;;;;66.53;30.93;;;0.20;99.90;;;;;;4155803;28;20265;-62
2021/03/13 03:09:05;;;;;;;62.10;28.93;;;0.30;99.90;;;;;;4156777;28;20814;-63
2021/03/13 03:11:08;;;;;;;69.60;30.23;;;0.30;99.90;;;;;;4156625;28;20278;-63
2021/03/13 03:13:10;;;;;;;67.47;31.37;;;0.40;99.90;;;;;;4157269;28;20270;-63
2021/03/13 03:15:13;;;;;;;69.90;32.10;;;0.40;99.90;;;;;;4154427;28;20694;-63
2021/03/13 03:17:16;;;;;;;70.70;32.07;;;0.50;99.90;;;;;;4157373;28;20278;-62
2021/03/13 03:19:18;;;;;;;68.93;32.70;;;0.50;99.90;;;;;;4156051;28;20464;-62
2021/03/13 03:21:20;;;;;;;70.47;32.53;;;0.60;99.90;;;;;;4156712;28;20254;-64
2021/03/13 03:23:22;;;;;;;73.33;33.27;;;0.80;99.90;;;;;;4155926;28;20329;-61
2021/03/13 03:25:23;;;;;;;71.93;33.47;;;0.90;99.90;;;;;;4170493;28;20332;-63
2021/03/13 03:27:24;;;;;;;74.87;33.57;;;0.90;99.90;;;;;;4171294;28;20258;-63
2021/03/13 03:29:27;;;;;;;71.70;33.60;;;1.00;99.90;;;;;;4172941;28;20324;-67
2021/03/13 03:31:28;;;;;;;79.87;35.10;;;1.00;99.90;;;;;;4173114;28;20270;-64
2021/03/13 03:33:29;;;;;;;71.30;32.40;;;1.00;99.90;;;;;;4172774;28;20246;-63
2021/03/13 03:35:31;;;;;;;71.67;32.27;;;0.90;99.90;;;;;;4173221;28;20273;-63
2021/03/13 03:37:32;;;;;;;66.63;32.93;;;0.90;99.90;;;;;;4175363;28;20269;-62
2021/03/13 03:39:34;;;;;;;68.27;31.60;;;0.90;99.90;;;;;;4177281;28;20296;-62
2021/03/13 03:41:38;;;;;;;66.50;32.37;;;0.90;99.90;;;;;;4175595;28;20290;-62
2021/03/13 03:43:50;;;;;;;64.00;30.63;;;0.80;99.90;;;;;;4176507;28;20261;-65
2021/03/13 03:45:54;;;;;;;66.63;29.60;;;0.80;99.90;;;;;;4174652;28;20331;-63
2021/03/13 03:47:55;;;;;;;68.10;32.17;;;0.90;99.90;;;;;;4175818;28;20351;-62
2021/03/13 03:49:56;;;;;;;66.03;31.07;;;0.90;99.90;;;;;;4158768;28;20674;-63
2021/03/13 03:51:59;;;;;;;71.03;32.17;;;0.90;99.90;;;;;;4160023;28;20275;-63
2021/03/13 03:54:05;;;;;;;73.10;33.07;;;1.00;99.90;;;;;;4158889;28;20337;-66
2021/03/13 03:56:07;;;;;;;78.40;36.40;;;1.00;99.90;;;;;;4160164;28;20661;-64
2021/03/13 03:58:09;;;;;;;75.43;34.27;;;1.10;99.90;;;;;;4157098;28;20764;-67
2021/03/13 04:00:12;;;;;;;73.30;34.43;;;1.10;99.90;;;;;;4158985;28;20270;-62
2021/03/13 04:02:14;;;;;;;70.93;35.60;;;1.10;99.90;;;;;;4159199;28;20325;-65
2021/03/13 04:04:19;;;;;;;69.40;33.57;;;1.20;99.90;;;;;;4159322;28;20328;-63
2021/03/13 04:06:21;;;;;;;78.73;34.87;;;1.30;99.90;;;;;;4158981;28;20271;-64
2021/03/13 04:08:23;;;;;;;68.57;33.70;;;1.30;99.90;;;;;;4159321;28;20425;-63
2021/03/13 04:10:25;;;;;;;68.17;32.13;;;1.30;99.90;;;;;;4160131;28;20271;-64
2021/03/13 04:12:27;;;;;;;67.67;33.03;;;1.30;99.90;;;;;;4158645;28;20305;-63
2021/03/13 04:14:29;;;;;;;64.93;31.23;;;1.30;99.90;;;;;;4159705;28;20275;-63
2021/03/13 04:16:31;;;;;;;77.43;34.53;;;1.30;99.90;;;;;;4158487;28;20259;-66
2021/03/13 04:18:32;;;;;;;63.27;30.13;;;1.20;99.90;;;;;;4159160;28;20271;-64
2021/03/13 04:20:33;;;;;;;67.00;32.63;;;1.20;99.90;;;;;;4158343;28;20259;-68
2021/03/13 04:22:39;;;;;;;71.80;32.70;;;1.20;99.90;;;;;;4159542;28;20915;-63
2021/03/13 04:24:41;;;;;;;65.47;32.33;;;1.20;99.90;;;;;;4158120;28;20266;-63
2021/03/13 04:26:43;;;;;;;68.03;33.77;;;1.20;99.90;;;;;;4159050;28;20274;-64
2021/03/13 04:28:46;;;;;;;66.43;32.77;;;1.20;99.90;;;;;;4157684;28;20325;-64
2021/03/13 04:30:48;;;;;;;63.13;31.70;;;1.20;99.90;;;;;;4158239;28;20368;-63
2021/03/13 04:32:53;;;;;;;72.17;35.10;;;1.20;99.90;;;;;;4157240;28;20341;-70
2021/03/13 04:34:56;;;;;;;68.27;34.13;;;1.20;99.90;;;;;;4159471;28;20352;-63
2021/03/13 04:36:57;;;;;;;68.67;34.43;;;1.20;99.90;;;;;;4157915;28;20316;-64
2021/03/13 04:39:01;;;;;;;73.43;34.70;;;1.20;99.90;;;;;;4158106;28;20361;-63
2021/03/13 04:41:03;;;;;;;74.20;36.03;;;1.20;99.90;;;;;;4158777;28;20310;-63
2021/03/13 04:43:06;;;;;;;73.50;35.03;;;1.10;99.90;;;;;;4158531;28;20968;-63
2021/03/13 04:45:14;;;;;;;75.43;36.00;;;1.10;99.90;;;;;;4158724;28;20309;-64
2021/03/13 04:47:15;;;;;;;71.97;35.33;;;1.10;99.90;;;;;;4157926;28;20608;-64
2021/03/13 04:49:16;;;;;;;71.67;33.70;;;1.10;99.90;;;;;;4157631;28;20821;-64
2021/03/13 04:51:18;;;;;;;73.00;34.73;;;1.10;99.90;;;;;;4157685;28;20274;-63
2021/03/13 04:53:19;;;;;;;65.97;33.27;;;1.10;99.90;;;;;;4158811;28;20283;-64
2021/03/13 04:55:20;;;;;;;69.90;33.87;;;1.10;99.90;;;;;;4157796;28;20274;-65
2021/03/13 04:57:21;;;;;;;64.70;31.47;;;1.20;99.90;;;;;;4159314;28;20328;-65
2021/03/13 04:59:22;;;;;;;69.10;32.70;;;1.10;99.90;;;;;;4156717;28;20683;-64
2021/03/13 05:01:23;;;;;;;68.43;33.87;;;1.20;99.90;;;;;;4158530;28;20267;-64
2021/03/13 05:03:25;;;;;;;69.20;34.90;;;1.20;99.90;;;;;;4157701;28;20275;-64
2021/03/13 05:05:26;;;;;;;67.10;33.10;;;1.10;99.90;;;;;;4159314;28;20274;-63
2021/03/13 05:07:27;;;;;;;72.83;35.53;;;1.10;99.90;;;;;;4157299;28;20397;-64
2021/03/13 05:09:29;;;;;;;78.53;37.80;;;1.10;99.90;;;;;;4158500;28;20294;-70
2021/03/13 05:11:30;;;;;;;78.57;39.27;;;1.10;99.90;;;;;;4158043;28;20271;-64
2021/03/13 05:13:31;;;;;;;81.97;37.90;;;1.00;99.90;;;;;;4158008;28;20325;-65
2021/03/13 05:15:32;;;;;;;80.10;37.27;;;1.00;99.90;;;;;;4158054;28;20267;-64
2021/03/13 05:17:33;;;;;;;82.53;37.80;;;1.00;99.90;;;;;;4157947;28;20313;-71
2021/03/13 05:19:34;;;;;;;75.00;36.80;;;1.00;99.90;;;;;;4158284;28;20274;-65
2021/03/13 05:21:36;;;;;;;76.43;35.63;;;1.00;99.90;;;;;;4157527;28;20294;-65
2021/03/13 05:23:37;;;;;;;74.33;36.77;;;1.00;99.90;;;;;;4158140;28;20985;-64
2021/03/13 05:25:39;;;;;;;75.80;36.27;;;1.00;99.90;;;;;;4157024;28;20267;-66
2021/03/13 05:27:41;;;;;;;71.63;35.83;;;1.00;99.90;;;;;;4157130;28;20678;-71
2021/03/13 05:29:43;;;;;;;78.53;36.70;;;1.00;99.90;;;;;;4156674;28;20376;-63
2021/03/13 05:31:45;;;;;;;74.37;36.93;;;1.00;99.90;;;;;;4158555;28;20267;-68
2021/03/13 05:33:46;;;;;;;73.80;35.13;;;1.00;99.90;;;;;;4156828;28;20333;-71
2021/03/13 05:35:47;;;;;;;68.03;34.73;;;1.00;99.90;;;;;;4157657;28;20340;-66
2021/03/13 05:37:48;;;;;;;69.30;35.00;;;1.00;99.90;;;;;;4156585;28;20290;-71
2021/03/13 05:39:49;;;;;;;72.90;36.37;;;1.00;99.90;;;;;;4158244;28;21249;-68
2021/03/13 05:41:51;;;;;;;76.90;34.77;;;1.00;99.90;;;;;;4157619;28;20266;-63
2021/03/13 05:43:54;;;;;;;71.73;36.10;;;1.10;99.90;;;;;;4157951;28;20274;-64
2021/03/13 05:45:55;;;;;;;73.30;34.90;;;1.10;99.90;;;;;;4157316;28;20836;-64
2021/03/13 05:47:58;;;;;;;65.40;33.23;;;1.10;99.90;;;;;;4157605;28;20320;-63
2021/03/13 05:50:05;;;;;;;70.17;35.83;;;1.20;99.90;;;;;;4157503;28;20320;-63
2021/03/13 05:52:07;;;;;;;75.27;34.37;;;1.10;99.90;;;;;;4156843;28;20341;-64
2021/03/13 05:54:11;;;;;;;69.60;34.80;;;1.20;99.90;;;;;;4157845;28;20659;-63
2021/03/13 05:56:12;;;;;;;74.73;35.67;;;1.20;99.90;;;;;;4156360;28;20762;-69
2021/03/13 05:58:13;;;;;;;69.83;34.67;;;1.20;99.90;;;;;;4157049;28;20267;-66
2021/03/13 06:00:15;;;;;;;69.93;34.00;;;1.20;99.90;;;;;;4156734;28;20349;-68
2021/03/13 06:02:17;;;;;;;71.60;35.33;;;1.10;99.90;;;;;;4157525;28;20824;-63
2021/03/13 06:04:19;;;;;;;69.17;34.90;;;1.10;99.90;;;;;;4154826;28;20267;-72
2021/03/13 06:06:24;;;;;;;75.37;37.13;;;1.10;99.90;;;;;;4157761;28;20267;-66
2021/03/13 06:08:26;;;;;;;69.37;35.43;;;1.20;99.90;;;;;;4156752;28;20330;-66
2021/03/13 06:10:27;;;;;;;72.50;36.00;;;1.20;99.90;;;;;;4157999;28;20333;-66
2021/03/13 06:12:28;;;;;;;68.27;34.80;;;1.20;99.90;;;;;;4155758;28;20341;-65
2021/03/13 06:14:29;;;;;;;79.13;39.90;;;1.30;99.90;;;;;;4156946;28;20286;-67
2021/03/13 06:16:31;;;;;;;84.73;42.83;;;1.40;99.90;;;;;;4156316;28;20301;-64
2021/03/13 06:18:48;;;;;;;77.40;36.13;;;1.40;99.90;;;;;;4156710;28;20293;-71
2021/03/13 06:20:49;;;;;;;80.60;41.33;;;1.50;99.90;;;;;;4155598;28;20324;-69
2021/03/13 06:22:50;;;;;;;75.50;37.80;;;1.60;99.90;;;;;;4156755;28;20735;-67
2021/03/13 06:24:51;;;;;;;73.90;35.60;;;1.60;99.90;;;;;;4156373;28;20309;-64
2021/03/13 06:26:57;;;;;;;72.97;32.93;;;1.70;99.90;;;;;;4156608;28;20270;-63
2021/03/13 06:28:58;;;;;;;74.50;36.27;;;1.70;99.90;;;;;;4156205;28;20439;-65
2021/03/13 06:31:07;;;;;;;67.40;33.47;;;1.70;99.90;;;;;;4156118;28;20275;-63
2021/03/13 06:33:29;;;;;;;72.37;33.93;;;1.80;99.90;;;;;;4156398;28;20258;-64
2021/03/13 06:35:30;;;;;;;70.27;33.83;;;1.90;99.90;;;;;;4140068;28;21082;-65
2021/03/13 06:37:31;;;;;;;72.40;34.17;;;1.90;99.90;;;;;;4147142;28;20317;-58
2021/03/13 06:39:39;;;;;;;63.77;32.33;;;1.90;99.90;;;;;;4155796;28;20279;-62
2021/03/13 06:41:40;;;;;;;72.57;35.33;;;1.90;99.90;;;;;;4157402;28;20804;-63
2021/03/13 06:43:42;;;;;;;66.30;33.50;;;2.00;99.90;;;;;;4156033;28;20681;-62
2021/03/13 06:45:53;;;;;;;69.80;34.33;;;2.10;99.90;;;;;;4157629;28;20279;-62
2021/03/13 06:47:55;;;;;;;72.53;33.10;;;2.10;99.90;;;;;;4156629;28;20286;-65
2021/03/13 06:50:38;;;;;;;65.87;32.43;;;2.10;99.90;;;;;;4156497;28;20298;-62
2021/03/13 06:52:40;;;;;;;65.07;31.40;;;2.20;99.90;;;;;;4151956;28;20360;-64
2021/03/13 06:54:41;;;;;;;66.23;33.67;;;2.30;99.90;;;;;;4156426;28;20262;-64
2021/03/13 06:56:53;;;;;;;63.80;33.10;;;2.50;99.90;;;;;;4155288;28;20813;-62
2021/03/13 06:58:55;;;;;;;64.37;32.83;;;2.60;99.90;;;;;;4156346;28;20263;-66
2021/03/13 07:01:03;;;;;;;61.50;32.43;;;2.70;99.90;;;;;;4155970;28;20909;-64
2021/03/13 07:03:06;;;;;;;63.17;32.13;;;2.70;99.90;;;;;;4156777;28;20325;-64
2021/03/13 07:05:09;;;;;;;60.80;30.87;;;2.80;99.90;;;;;;4156029;28;20268;-64
2021/03/13 07:07:31;;;;;;;71.43;34.73;;;2.90;99.90;;;;;;4157088;28;20270;-62
2021/03/13 07:09:53;;;;;;;60.97;29.43;;;3.00;99.90;;;;;;4154929;28;20344;-61
2021/03/13 07:11:54;;;;;;;57.93;29.27;;;3.00;99.90;;;;;;4160299;28;20308;-58
2021/03/13 07:13:56;;;;;;;55.93;29.80;;;3.00;99.90;;;;;;4159992;28;20270;-59
2021/03/13 07:16:34;;;;;;;62.30;30.93;;;3.00;99.90;;;;;;4147881;28;20332;-63
2021/03/13 07:18:35;;;;;;;70.87;34.57;;;3.00;99.90;;;;;;4143454;28;20279;-63
2021/03/13 07:20:38;;;;;;;66.60;31.37;;;3.00;99.90;;;;;;4143428;28;20759;-64
2021/03/13 07:22:40;;;;;;;58.67;30.73;;;2.90;99.90;;;;;;4142039;28;20279;-63
2021/03/13 07:24:42;;;;;;;61.83;31.63;;;2.90;99.90;;;;;;4143627;28;20283;-63
2021/03/13 07:26:45;;;;;;;56.43;29.20;;;2.90;99.90;;;;;;4142305;28;20794;-61
2021/03/13 07:28:49;;;;;;;57.77;30.97;;;3.00;99.90;;;;;;4143586;28;20279;-64
2021/03/13 07:30:50;;;;;;;54.90;28.80;;;3.00;99.90;;;;;;4142214;28;20990;-63
2021/03/13 07:32:58;;;;;;;55.43;29.57;;;3.10;99.90;;;;;;4143759;28;20275;-62
2021/03/13 07:35:03;;;;;;;57.63;30.40;;;3.10;99.90;;;;;;4142490;28;20291;-63
2021/03/13 07:37:07;;;;;;;58.90;28.53;;;3.10;99.90;;;;;;4150011;28;20299;-67
2021/03/13 07:39:17;;;;;;;52.17;27.77;;;3.20;99.90;;;;;;4158462;28;20275;-64
2021/03/13 07:41:19;;;;;;;50.70;26.50;;;3.20;99.90;;;;;;4160170;28;20337;-61
2021/03/13 07:43:21;;;;;;;57.77;29.57;;;3.20;99.90;;;;;;4158594;28;20262;-62
2021/03/13 07:45:23;;;;;;;57.33;28.20;;;3.30;99.90;;;;;;4160076;28;20409;-61
2021/03/13 07:47:24;;;;;;;49.43;25.80;;;3.40;99.90;;;;;;4156946;28;20271;-63
2021/03/13 07:49:25;;;;;;;50.27;28.57;;;3.50;99.90;;;;;;4158954;28;20384;-64
2021/03/13 07:51:27;;;;;;;53.77;27.77;;;3.50;99.90;;;;;;4158113;28;20409;-65
2021/03/13 07:53:33;;;;;;;59.20;31.30;;;3.60;99.90;;;;;;4158939;28;20325;-66
2021/03/13 07:55:35;;;;;;;54.63;28.67;;;3.70;99.90;;;;;;4158673;28;20753;-60
2021/03/13 07:57:37;;;;;;;54.03;28.53;;;3.70;99.90;;;;;;4158277;28;20352;-61
2021/03/13 07:59:45;;;;;;;54.50;26.87;;;3.90;99.90;;;;;;4159008;28;20317;-60
2021/03/13 08:01:51;;;;;;;46.50;25.37;;;4.00;99.90;;;;;;4158535;28;20750;-60
2021/03/13 08:03:52;;;;;;;54.67;28.10;;;4.20;99.90;;;;;;4159047;28;20267;-60
2021/03/13 08:06:00;;;;;;;50.93;26.83;;;4.40;99.90;;;;;;4158064;28;20715;-61
2021/03/13 08:08:06;;;;;;;55.67;27.97;;;4.50;99.90;;;;;;4157276;28;20369;-63
2021/03/13 08:10:07;;;;;;;55.40;28.10;;;4.50;99.90;;;;;;4157958;28;20283;-64
2021/03/13 08:12:10;;;;;;;52.67;27.13;;;4.60;99.90;;;;;;4159680;28;20275;-66
2021/03/13 08:14:33;;;;;;;49.23;25.33;;;4.60;99.90;;;;;;4157245;28;20275;-64
2021/03/13 08:16:36;;;;;;;48.37;26.37;;;4.70;99.90;;;;;;4159205;28;20286;-65
2021/03/13 08:18:45;;;;;;;51.27;29.93;;;4.70;99.90;;;;;;4157725;28;20666;-64
2021/03/13 08:20:46;;;;;;;54.03;28.23;;;4.80;99.90;;;;;;4158909;28;20313;-67
2021/03/13 08:23:07;;;;;;;56.50;28.63;;;4.80;99.90;;;;;;4157112;28;20266;-64
2021/03/13 08:25:29;;;;;;;;;;;4.90;99.90;;;;;;4159396;28;20662;-63
2021/03/13 08:27:32;;;;;;;;;;;4.80;99.90;;;;;;4156899;28;19912;-65
2021/03/13 08:29:50;;;;;;;50.57;26.23;;;4.70;99.90;;;;;;4158858;28;19921;-64
2021/03/13 08:31:52;;;;;;;49.83;24.03;;;4.80;99.90;;;;;;4157868;28;20266;-64
2021/03/13 08:33:58;;;;;;;46.40;25.47;;;4.80;99.90;;;;;;4158618;28;20283;-64
2021/03/13 08:36:15;;;;;;;51.10;25.70;;;4.80;99.90;;;;;;4154757;28;20274;-66
2021/03/13 08:38:21;;;;;;;46.70;24.67;;;4.80;99.90;;;;;;4158630;28;20279;-68
2021/03/13 08:40:26;;;;;;;53.20;27.13;;;4.90;99.90;;;;;;4157682;28;20267;-65
2021/03/13 08:42:29;;;;;;;47.97;26.57;;;4.90;99.90;;;;;;4158967;28;20266;-64
2021/03/13 08:44:38;;;;;;;46.03;25.97;;;4.90;99.90;;;;;;4157647;28;20271;-66
2021/03/13 08:47:05;;;;;;;49.77;25.80;;;4.90;99.90;;;;;;4158779;28;20275;-64
2021/03/13 08:49:07;;;;;;;52.37;26.80;;;5.00;99.90;;;;;;4140796;28;20307;-65
2021/03/13 08:51:17;;;;;;;52.50;27.97;;;5.00;99.90;;;;;;4141925;28;20326;-65
2021/03/13 08:53:38;;;;;;;50.78;27.50;;;5.20;99.90;;;;;;4139516;28;20330;-61
2021/03/13 08:55:40;;;;;;;45.30;24.93;;;5.30;99.90;;;;;;4140986;28;20697;-64
2021/03/13 08:57:44;;;;;;;52.43;27.00;;;5.30;99.90;;;;;;4152445;28;20275;-62
2021/03/13 08:59:59;;;;;;;49.87;26.20;;;5.40;99.90;;;;;;4158339;28;20844;-63
2021/03/13 09:02:03;;;;;;;49.20;25.50;;;5.40;99.90;;;;;;4157186;28;20715;-63
2021/03/13 09:04:04;;;;;;;42.67;24.27;;;5.50;99.90;;;;;;4158219;28;20666;-63
2021/03/13 09:06:05;;;;;;;49.63;25.63;;;5.50;99.90;;;;;;4155234;28;20275;-64
2021/03/13 09:08:07;;;;;;;49.07;25.47;;;5.60;99.90;;;;;;4157983;28;20271;-64
2021/03/13 09:10:08;;;;;;;45.60;25.53;;;5.70;99.90;;;;;;4156805;28;20353;-63
2021/03/13 09:12:14;;;;;;;50.03;26.30;;;5.80;99.90;;;;;;4158124;28;20286;-63
2021/03/13 09:14:15;;;;;;;47.80;24.97;;;5.80;99.90;;;;;;4157098;28;20277;-65
2021/03/13 09:16:17;;;;;;;45.67;24.97;;;5.90;99.90;;;;;;4157861;28;20338;-65
2021/03/13 09:18:18;;;;;;;45.70;26.00;;;6.10;99.90;;;;;;4156823;28;21104;-64
2021/03/13 09:20:20;;;;;;;44.93;25.23;;;6.20;99.90;;;;;;4158089;28;20267;-63
2021/03/13 09:22:24;;;;;;;42.70;24.47;;;6.30;99.90;;;;;;4156936;28;20345;-62
2021/03/13 09:24:28;;;;;;;43.70;25.13;;;6.30;99.90;;;;;;4157773;28;20818;-65
2021/03/13 09:26:29;;;;;;;45.23;24.07;;;6.30;99.90;;;;;;4157042;28;20262;-64
2021/03/13 09:28:31;;;;;;;41.53;22.30;;;6.50;99.90;;;;;;4157077;28;20607;-64
2021/03/13 09:30:35;;;;;;;44.80;24.37;;;6.70;99.90;;;;;;4157351;28;20650;-63
2021/03/13 09:32:44;;;;;;;42.33;23.37;;;6.70;99.90;;;;;;4156094;28;20735;-65
2021/03/13 09:34:47;;;;;;;41.77;23.30;;;6.80;99.90;;;;;;4156413;28;20763;-63
2021/03/13 09:36:49;;;;;;;41.13;22.83;;;7.10;99.90;;;;;;4156082;28;20282;-64
2021/03/13 09:38:56;;;;;;;39.07;23.10;;;7.30;99.90;;;;;;4157573;28;20045;-63
2021/03/13 09:40:58;;;;;;;47.10;23.07;;;7.50;99.90;;;;;;4156222;28;20731;-65
2021/03/13 09:42:59;;;;;;;40.53;21.80;;;7.60;99.90;;;;;;4157741;28;20811;-64
2021/03/13 09:45:08;;;;;;;38.77;22.17;;;7.90;99.90;;;;;;4156231;28;20096;-64
2021/03/13 09:47:10;;;;;;;41.27;22.50;;;7.90;99.90;;;;;;4157357;28;21118;-64
2021/03/13 09:49:12;;;;;;;36.87;21.40;;;7.90;99.90;;;;;;4156387;28;20932;-63
2021/03/13 09:51:13;;;;;;;35.83;19.73;;;7.90;99.90;;;;;;4157357;28;20095;-64
2021/03/13 09:53:15;;;;;;;35.93;19.53;;;7.90;99.90;;;;;;4155101;28;20038;-64
2021/03/13 09:55:17;;;;;;;37.10;21.80;;;8.10;99.90;;;;;;4157616;28;20037;-63
2021/03/13 09:57:18;;;;;;;35.90;18.67;;;8.10;99.90;;;;;;4156772;28;20037;-64
2021/03/13 09:59:19;;;;;;;31.03;17.17;;;8.20;99.90;;;;;;4157099;28;20439;-64
2021/03/13 10:01:20;;;;;;;31.63;18.50;;;8.20;99.90;;;;;;4156791;28;20496;-65
2021/03/13 10:03:22;;;;;;;31.00;15.37;;;8.30;99.90;;;;;;4156818;28;20049;-65
2021/03/13 10:05:26;;;;;;;28.23;16.30;;;8.40;99.90;;;;;;4155829;28;20037;-64
2021/03/13 10:07:28;;;;;;;27.17;14.93;;;8.50;99.90;;;;;;4156395;28;20060;-64
2021/03/13 10:09:29;;;;;;;26.33;13.93;;;8.70;99.90;;;;;;4157097;28;20049;-64
2021/03/13 10:11:43;;;;;;;22.87;14.67;;;8.90;99.90;;;;;;4156136;28;20433;-64
2021/03/13 10:13:50;;;;;;;22.73;11.90;;;9.00;99.90;;;;;;4157340;28;20025;-65
2021/03/13 10:15:51;;;;;;;22.93;13.00;;;9.00;99.90;;;;;;4156102;28;20099;-64
2021/03/13 10:18:01;;;;;;;22.60;13.17;;;9.10;99.90;;;;;;4157072;28;20030;-65
2021/03/13 10:20:11;;;;;;;20.93;12.00;;;9.00;99.90;;;;;;4154338;28;20107;-65
2021/03/13 10:22:14;;;;;;;18.25;9.00;;;9.00;99.90;;;;;;4157154;28;20429;-64
2021/03/13 10:24:15;;;;;;;16.67;10.93;;;9.10;99.90;;;;;;4156342;28;20037;-67
2021/03/13 10:26:17;;;;;;;23.67;10.97;;;9.20;99.90;;;;;;4157808;28;20493;-65
2021/03/13 10:28:18;;;;;;;14.63;8.13;;;9.20;99.90;;;;;;4154513;28;20107;-64
2021/03/13 10:30:26;;;;;;;18.80;10.23;;;9.30;99.90;;;;;;4156853;28;20508;-65
2021/03/13 10:32:30;;;;;;;14.37;7.50;;;9.40;99.90;;;;;;4155925;28;20025;-64
2021/03/13 10:34:35;;;;;;;16.07;9.57;;;9.50;99.90;;;;;;4156994;28;20099;-64
2021/03/13 10:36:44;;;;;;;17.43;9.07;;;9.60;99.90;;;;;;4155300;28;20103;-65
2021/03/13 10:38:49;;;;;;;18.13;10.17;;;9.70;99.90;;;;;;4155636;28;20029;-65